Time;durP1;ratioP1;P1;durP2;ratioP2;P2;SDS_P1;SDS_P2;PMS_P1;PMS_P2;Temp;Humidity;BMP_temperature;BMP_pressure;BME280_temperature;BME280_humidity;BME280_pressure;Samples;Min_cycle;Max_cycle;Signal;HPM_P1;HPM_P2
2022/10/03 00:00:02;;;;;;;12.50;7.43;;;9.40;99.90;;;;;;5022877;28;21016;-74
2022/10/03 00:02:48;;;;;;;12.57;6.80;;;9.40;99.90;;;;;;5030649;28;20545;-74
2022/10/03 00:05:30;;;;;;;15.27;7.40;;;9.30;99.90;;;;;;5030888;28;20480;-74
2022/10/03 00:08:08;;;;;;;12.03;6.93;;;9.30;99.90;;;;;;5031786;28;20486;-74
2022/10/03 00:10:47;;;;;;;23.70;7.37;;;9.30;99.90;;;;;;5030687;28;20446;-75
2022/10/03 00:13:24;;;;;;;11.93;7.33;;;9.30;99.90;;;;;;5030709;28;20457;-75
2022/10/03 00:16:01;;;;;;;18.93;6.90;;;9.20;99.90;;;;;;5030743;28;20489;-75
2022/10/03 00:18:39;;;;;;;16.83;7.43;;;9.20;99.90;;;;;;5031497;28;20457;-75
2022/10/03 00:21:19;;;;;;;14.40;7.40;;;9.10;99.90;;;;;;5031243;28;20460;-74
2022/10/03 00:23:57;;;;;;;10.50;6.93;;;9.10;99.90;;;;;;5026269;28;20539;-74
2022/10/03 00:26:36;;;;;;;13.30;7.30;;;9.10;99.90;;;;;;5030466;28;20439;-74
2022/10/03 00:29:36;;;;;;;11.47;6.33;;;9.10;99.90;;;;;;5030316;28;20962;-75
2022/10/03 00:32:17;;;;;;;13.97;6.70;;;9.00;99.90;;;;;;5027983;28;20482;-75
2022/10/03 00:35:01;;;;;;;19.53;9.43;;;9.00;99.90;;;;;;5031108;28;20476;-74
2022/10/03 00:37:34;;;;;;;17.50;7.10;;;9.00;99.90;;;;;;5030671;28;21038;-75
2022/10/03 00:40:34;;;;;;;21.80;7.27;;;8.90;99.90;;;;;;5030817;28;20458;-74
2022/10/03 00:43:42;;;;;;;17.70;7.20;;;8.90;99.90;;;;;;4974441;28;20456;-74
2022/10/03 00:46:36;;;;;;;27.33;7.50;;;8.90;99.90;;;;;;5030515;28;20516;-75
2022/10/03 00:49:32;;;;;;;17.90;6.83;;;8.90;99.90;;;;;;5030693;28;20454;-74
2022/10/03 00:52:22;;;;;;;8.67;5.43;;;8.90;99.90;;;;;;5031005;28;20451;-75
2022/10/03 00:55:05;;;;;;;15.97;5.83;;;8.80;99.90;;;;;;5025897;28;20466;-75
2022/10/03 00:57:49;;;;;;;11.20;5.47;;;8.90;99.90;;;;;;5031604;28;20854;-75
2022/10/03 01:00:19;;;;;;;11.50;6.87;;;8.80;99.90;;;;;;5034268;28;20946;-75
2022/10/03 01:03:28;;;;;;;17.77;5.90;;;8.80;99.90;;;;;;5034941;28;20460;-75
2022/10/03 01:06:24;;;;;;;15.43;5.83;;;8.80;99.90;;;;;;5018786;28;20470;-74
2022/10/03 01:09:07;;;;;;;10.17;5.30;;;8.80;99.90;;;;;;5026290;28;20859;-74
2022/10/03 01:11:47;;;;;;;11.10;5.70;;;8.80;99.90;;;;;;5029864;28;21138;-75
2022/10/03 01:14:32;;;;;;;18.97;6.00;;;8.80;99.90;;;;;;5034327;28;20480;-75
2022/10/03 01:17:11;;;;;;;13.43;5.40;;;8.80;99.90;;;;;;5030495;28;20482;-75
2022/10/03 01:20:18;;;;;;;11.23;5.77;;;8.70;99.90;;;;;;5034289;28;20824;-75
2022/10/03 01:23:35;;;;;;;14.10;5.90;;;8.70;99.90;;;;;;4986795;28;20455;-75
2022/10/03 01:26:19;;;;;;;21.00;6.70;;;8.70;99.90;;;;;;5030904;28;20454;-74
2022/10/03 01:31:46;;;;;;;16.67;5.70;;;8.60;99.90;;;;;;5034305;28;20441;-75
2022/10/03 01:34:20;;;;;;;13.27;5.27;;;8.50;99.90;;;;;;5034022;28;21170;-75
2022/10/03 01:36:56;;;;;;;23.60;6.10;;;8.50;99.90;;;;;;5028577;28;20485;-75
2022/10/03 01:39:32;;;;;;;8.67;5.80;;;8.40;99.90;;;;;;5033463;28;21349;-75
2022/10/03 01:42:03;;;;;;;7.57;5.40;;;8.40;99.90;;;;;;5034082;28;20819;-75
2022/10/03 01:44:39;;;;;;;21.87;6.40;;;8.40;99.90;;;;;;5033790;28;20480;-75
2022/10/03 01:47:19;;;;;;;10.93;5.80;;;8.40;99.90;;;;;;5033246;28;20977;-75
2022/10/03 01:49:52;;;;;;;13.50;6.77;;;8.40;99.90;;;;;;5028376;28;20461;-75
2022/10/03 01:52:25;;;;;;;11.07;6.70;;;8.30;99.90;;;;;;5033109;28;20884;-75
2022/10/03 01:54:58;;;;;;;14.57;7.13;;;8.30;99.90;;;;;;5033821;28;20473;-74
2022/10/03 01:57:32;;;;;;;21.23;5.70;;;8.30;99.90;;;;;;5024852;28;20501;-75
2022/10/03 02:00:05;;;;;;;23.47;6.20;;;8.20;99.90;;;;;;5029604;28;20544;-75
2022/10/03 02:02:36;;;;;;;11.27;6.00;;;8.20;99.90;;;;;;5033820;28;20595;-75
2022/10/03 02:05:11;;;;;;;11.70;6.50;;;8.20;99.90;;;;;;5033418;28;20480;-75
2022/10/03 02:07:47;;;;;;;16.10;5.90;;;8.20;99.90;;;;;;5033000;28;20857;-74
2022/10/03 02:10:26;;;;;;;14.20;6.73;;;8.20;99.90;;;;;;5032313;28;20463;-75
2022/10/03 02:13:03;;;;;;;17.00;6.60;;;8.10;99.90;;;;;;5028856;28;20463;-75
2022/10/03 02:15:41;;;;;;;9.97;6.20;;;8.10;99.90;;;;;;5033291;28;21003;-75
2022/10/03 02:18:14;;;;;;;15.73;6.30;;;8.10;99.90;;;;;;5033433;28;20445;-74
2022/10/03 02:20:47;;;;;;;13.17;6.90;;;8.10;99.90;;;;;;5032609;28;20448;-75
2022/10/03 02:23:26;;;;;;;16.10;5.90;;;8.10;99.90;;;;;;5033138;28;20462;-75
2022/10/03 02:26:04;;;;;;;7.67;5.07;;;8.10;99.90;;;;;;5027678;28;20464;-75
2022/10/03 02:28:50;;;;;;;15.03;5.67;;;8.00;99.90;;;;;;5032887;28;20457;-75
2022/10/03 02:32:00;;;;;;;13.63;7.53;;;8.00;99.90;;;;;;5032519;28;20454;-74
2022/10/03 02:34:55;;;;;;;14.23;7.00;;;8.00;99.90;;;;;;4990830;28;21065;-75
2022/10/03 02:37:47;;;;;;;12.93;7.50;;;7.90;99.90;;;;;;5032796;28;20539;-75
2022/10/03 02:40:49;;;;;;;18.93;7.20;;;7.90;99.90;;;;;;5032931;28;20462;-75
2022/10/03 02:43:44;;;;;;;19.07;8.83;;;8.00;99.90;;;;;;5030819;28;20503;-75
2022/10/03 02:46:35;;;;;;;23.53;8.03;;;8.10;99.90;;;;;;5029800;28;20980;-75
2022/10/03 02:49:35;;;;;;;13.87;8.70;;;8.10;99.90;;;;;;5017977;28;20453;-75
2022/10/03 02:52:23;;;;;;;16.90;9.20;;;8.10;99.90;;;;;;5025449;28;20456;-75
2022/10/03 02:54:58;;;;;;;17.70;8.93;;;8.10;99.90;;;;;;5027156;28;20480;-75
2022/10/03 02:58:06;;;;;;;16.63;9.60;;;8.10;99.90;;;;;;5032659;28;20482;-75
2022/10/03 03:00:53;;;;;;;34.37;10.90;;;8.10;99.90;;;;;;5021701;28;20454;-75
2022/10/03 03:03:51;;;;;;;18.43;9.50;;;8.10;99.90;;;;;;5030701;28;20457;-75
2022/10/03 03:06:52;;;;;;;28.43;9.50;;;8.10;99.90;;;;;;5030333;28;20958;-75
2022/10/03 03:09:41;;;;;;;23.80;9.60;;;8.20;99.90;;;;;;5026933;28;20871;-74
2022/10/03 03:12:49;;;;;;;17.17;8.80;;;8.20;99.90;;;;;;5029205;28;20833;-74
2022/10/03 03:16:04;;;;;;;16.23;8.50;;;8.10;99.90;;;;;;5029714;28;20472;-74
2022/10/03 03:18:37;;;;;;;27.20;10.83;;;8.10;99.90;;;;;;4990136;28;20462;-74
2022/10/03 03:21:15;;;;;;;18.67;9.83;;;8.00;99.90;;;;;;5029288;28;20463;-74
2022/10/03 03:24:07;;;;;;;25.20;10.70;;;8.10;99.90;;;;;;5031694;28;20519;-74
2022/10/03 03:26:59;;;;;;;17.30;9.37;;;8.10;99.90;;;;;;5031931;28;20841;-74
2022/10/03 03:29:38;;;;;;;23.10;9.37;;;8.10;99.90;;;;;;5031552;28;20515;-74
2022/10/03 03:32:15;;;;;;;15.40;9.17;;;8.10;99.90;;;;;;5029411;28;20449;-74
2022/10/03 03:34:51;;;;;;;15.93;9.93;;;8.10;99.90;;;;;;5031273;28;21012;-74
2022/10/03 03:37:26;;;;;;;22.77;8.73;;;8.00;99.90;;;;;;5031855;28;21059;-74
2022/10/03 03:40:14;;;;;;;23.50;9.60;;;8.00;99.90;;;;;;5025999;28;20465;-74
2022/10/03 03:43:08;;;;;;;21.60;9.17;;;8.00;99.90;;;;;;5030713;28;20452;-74
2022/10/03 03:45:44;;;;;;;12.93;8.43;;;8.00;99.90;;;;;;5030603;28;20504;-74
2022/10/03 03:48:27;;;;;;;15.00;8.37;;;8.00;99.90;;;;;;5031524;28;20468;-75
2022/10/03 03:51:09;;;;;;;13.77;8.77;;;7.90;99.90;;;;;;5026429;28;20461;-75
2022/10/03 03:54:18;;;;;;;17.87;9.27;;;7.90;99.90;;;;;;5031334;28;20471;-74
2022/10/03 03:57:19;;;;;;;14.53;8.63;;;7.90;99.90;;;;;;5029972;28;20495;-74
2022/10/03 04:00:01;;;;;;;18.23;9.20;;;7.80;99.90;;;;;;5029716;28;20502;-74
2022/10/03 04:02:45;;;;;;;21.80;9.40;;;7.80;99.90;;;;;;5031643;28;20457;-75
2022/10/03 04:05:23;;;;;;;19.67;8.60;;;7.90;99.90;;;;;;5031186;28;20487;-74
2022/10/03 04:08:10;;;;;;;20.93;9.87;;;7.80;99.90;;;;;;5031977;28;20448;-74
2022/10/03 04:10:52;;;;;;;27.47;8.57;;;7.90;99.90;;;;;;5031214;28;20463;-75
2022/10/03 04:13:33;;;;;;;16.03;8.00;;;7.90;99.90;;;;;;5030525;28;20457;-73
2022/10/03 04:16:16;;;;;;;21.40;8.50;;;7.80;99.90;;;;;;5026172;28;20567;-74
2022/10/03 04:19:06;;;;;;;16.20;9.37;;;7.90;99.90;;;;;;5030562;28;20448;-74
2022/10/03 04:21:49;;;;;;;21.87;9.07;;;7.90;99.90;;;;;;5028450;28;20489;-74
2022/10/03 04:24:42;;;;;;;15.20;9.23;;;7.90;99.90;;;;;;5030007;28;20481;-74
2022/10/03 04:27:28;;;;;;;26.70;9.67;;;7.90;99.90;;;;;;5027388;28;20464;-74
2022/10/03 04:30:08;;;;;;;19.90;9.80;;;7.90;99.90;;;;;;5024966;28;20464;-73
2022/10/03 04:32:50;;;;;;;16.50;8.40;;;7.90;99.90;;;;;;5030280;28;20456;-74
2022/10/03 04:35:32;;;;;;;25.03;9.60;;;8.00;99.90;;;;;;5030878;28;20489;-74
2022/10/03 04:38:11;;;;;;;16.87;9.27;;;7.90;99.90;;;;;;5029444;28;20477;-74
2022/10/03 04:40:46;;;;;;;20.33;8.97;;;7.90;99.90;;;;;;5030828;28;20488;-74
2022/10/03 04:43:24;;;;;;;17.83;9.33;;;7.80;99.90;;;;;;5031471;28;20543;-74
2022/10/03 04:46:08;;;;;;;15.17;8.87;;;7.90;99.90;;;;;;5030538;28;20473;-74
2022/10/03 04:48:40;;;;;;;22.57;9.73;;;7.90;99.90;;;;;;5030643;28;21098;-74
2022/10/03 04:51:19;;;;;;;23.63;9.97;;;7.90;99.90;;;;;;5030717;28;20459;-74
2022/10/03 04:53:53;;;;;;;18.83;9.87;;;7.90;99.90;;;;;;5029288;28;20453;-74
2022/10/03 04:56:43;;;;;;;16.93;9.47;;;7.90;99.90;;;;;;5030616;28;20448;-74
2022/10/03 04:59:34;;;;;;;17.03;9.80;;;7.90;99.90;;;;;;5026865;28;20455;-74
2022/10/03 05:02:11;;;;;;;18.53;10.17;;;7.90;99.90;;;;;;5028858;28;20527;-74
2022/10/03 05:04:47;;;;;;;18.67;9.10;;;7.90;99.90;;;;;;5030117;28;20476;-74
2022/10/03 05:07:19;;;;;;;20.57;11.27;;;7.90;99.90;;;;;;5030176;28;20445;-73
2022/10/03 05:09:53;;;;;;;14.97;9.80;;;7.90;99.90;;;;;;5030128;28;20453;-73
2022/10/03 05:12:31;;;;;;;20.13;10.20;;;7.90;99.90;;;;;;5027912;28;20464;-74
2022/10/03 05:15:11;;;;;;;22.13;10.67;;;8.00;99.90;;;;;;5025007;28;20489;-74
2022/10/03 05:17:48;;;;;;;24.13;10.97;;;8.00;99.90;;;;;;5029794;28;20826;-74
2022/10/03 05:20:44;;;;;;;24.87;10.70;;;8.00;99.90;;;;;;5030401;28;20450;-74
2022/10/03 05:23:23;;;;;;;21.20;11.37;;;8.10;99.90;;;;;;5029100;28;20452;-74
2022/10/03 05:25:58;;;;;;;20.50;10.43;;;8.10;99.90;;;;;;5029814;28;20558;-74
2022/10/03 05:28:35;;;;;;;15.30;10.70;;;8.20;99.90;;;;;;5030226;28;20448;-74
2022/10/03 05:31:12;;;;;;;24.10;10.70;;;8.20;99.90;;;;;;5024949;28;20508;-74
2022/10/03 05:33:47;;;;;;;22.03;10.90;;;8.30;99.90;;;;;;5030073;28;20959;-73
2022/10/03 05:36:28;;;;;;;27.97;11.17;;;8.30;99.90;;;;;;5029846;28;20466;-74
2022/10/03 05:39:28;;;;;;;22.27;10.63;;;8.40;99.90;;;;;;5024467;28;20476;-74
2022/10/03 05:41:59;;;;;;;28.83;12.63;;;8.50;99.90;;;;;;5030359;28;20450;-77
2022/10/03 05:44:40;;;;;;;29.87;11.80;;;8.50;99.90;;;;;;5031287;28;20466;-77
2022/10/03 05:47:43;;;;;;;27.90;12.73;;;8.50;99.90;;;;;;5034903;28;20511;-77
2022/10/03 05:50:16;;;;;;;32.37;13.50;;;8.50;99.90;;;;;;5036382;28;20507;-82
2022/10/03 05:53:01;;;;;;;21.40;11.37;;;8.60;99.90;;;;;;5039103;28;20843;-79
2022/10/03 05:55:45;;;;;;;25.70;12.40;;;8.60;99.90;;;;;;5034217;28;20571;-77
2022/10/03 05:58:34;;;;;;;24.47;11.67;;;8.60;99.90;;;;;;5029195;28;20491;-77
2022/10/03 06:01:24;;;;;;;20.80;10.40;;;8.70;99.90;;;;;;5030718;28;20455;-79
2022/10/03 06:04:12;;;;;;;22.10;12.03;;;8.70;99.90;;;;;;5037130;28;20445;-79
2022/10/03 06:06:53;;;;;;;27.07;12.23;;;8.80;99.90;;;;;;5037130;28;20454;-79
2022/10/03 06:09:56;;;;;;;31.53;11.10;;;8.90;99.90;;;;;;5037922;28;20968;-79
2022/10/03 06:12:30;;;;;;;22.43;11.43;;;9.00;99.90;;;;;;5019298;28;20467;-81
2022/10/03 06:15:22;;;;;;;25.87;11.03;;;9.40;99.90;;;;;;5031514;28;20469;-80
2022/10/03 06:17:59;;;;;;;21.33;9.10;;;10.00;99.90;;;;;;5035617;28;20486;-80
2022/10/03 06:21:12;;;;;;;18.33;9.30;;;10.80;99.90;;;;;;5037936;28;21102;-79
2022/10/03 06:24:05;;;;;;;22.50;9.07;;;11.50;99.90;;;;;;5035859;28;20799;-79
2022/10/03 06:26:56;;;;;;;24.93;9.30;;;12.30;99.90;;;;;;5038067;28;20450;-81
2022/10/03 06:30:14;;;;;;;13.33;7.50;;;13.10;99.90;;;;;;5037688;28;20452;-79
2022/10/03 06:33:24;;;;;;;17.33;8.50;;;13.80;99.90;;;;;;5018822;28;20471;-80
2022/10/03 06:36:09;;;;;;;21.00;8.73;;;14.50;99.90;;;;;;5037849;28;20490;-79
2022/10/03 06:39:43;;;;;;;14.47;6.90;;;15.00;99.90;;;;;;5037591;28;20497;-79
2022/10/03 06:42:44;;;;;;;15.40;7.90;;;15.50;99.90;;;;;;5034885;28;20481;-81
2022/10/03 06:45:39;;;;;;;15.53;8.30;;;16.20;99.90;;;;;;5031377;28;20480;-80
2022/10/03 06:48:24;;;;;;;17.43;6.70;;;16.60;99.90;;;;;;5030873;28;20466;-74
2022/10/03 06:51:03;;;;;;;13.17;6.93;;;17.10;99.90;;;;;;5031486;28;20954;-75
2022/10/03 06:54:11;;;;;;;16.30;6.90;;;17.40;99.90;;;;;;5031815;28;21145;-74
2022/10/03 06:57:04;;;;;;;15.17;6.77;;;17.80;99.90;;;;;;5030718;28;20442;-74
2022/10/03 06:59:55;;;;;;;17.40;6.80;;;18.30;99.90;;;;;;5032220;28;20477;-74
2022/10/03 07:03:02;;;;;;;11.70;5.40;;;18.60;99.90;;;;;;5032217;28;20423;-74
2022/10/03 07:06:11;;;;;;;14.27;5.85;;;19.00;99.90;;;;;;5019299;28;20441;-73
2022/10/03 07:09:18;;;;;;;13.80;5.60;;;19.30;99.90;;;;;;5031181;28;20211;-73
2022/10/03 07:12:37;;;;;;;12.83;5.50;;;19.60;99.90;;;;;;5032029;28;20432;-74
2022/10/03 07:15:41;;;;;;;19.43;6.27;;;20.10;99.90;;;;;;4990439;28;20483;-74
2022/10/03 07:18:53;;;;;;;11.73;5.30;;;20.30;99.90;;;;;;4985256;28;20567;-74
2022/10/03 07:21:49;;;;;;;13.70;5.63;;;20.40;99.90;;;;;;4974829;28;20427;-75
2022/10/03 07:24:52;;;;;;;10.70;5.50;;;20.40;99.90;;;;;;5023326;28;20913;-74
2022/10/03 07:27:29;;;;;;;10.73;5.20;;;20.50;99.90;;;;;;5032835;28;20420;-75
2022/10/03 07:30:09;;;;;;;15.00;5.67;;;20.40;99.90;;;;;;5032508;28;21007;-72
2022/10/03 07:33:09;;;;;;;8.90;4.67;;;20.30;99.90;;;;;;5029163;28;20450;-83
2022/10/03 07:38:59;;;;;;;12.60;5.53;;;20.10;99.90;;;;;;5036820;28;20480;-81
2022/10/03 07:41:53;;;;;;;14.68;5.00;;;19.70;99.90;;;;;;5030753;28;20810;-76
2022/10/03 07:44:51;;;;;;;22.17;5.90;;;19.00;99.90;;;;;;5031215;28;20219;-77
2022/10/03 07:47:52;;;;;;;14.30;5.00;;;18.60;99.90;;;;;;5031922;28;20433;-77
2022/10/03 07:50:44;;;;;;;20.57;5.97;;;18.50;99.90;;;;;;5014286;28;20450;-76
2022/10/03 07:53:33;;;;;;;22.27;6.27;;;18.50;99.90;;;;;;5033135;28;20458;-76
2022/10/03 07:56:09;;;;;;;16.60;6.63;;;18.30;99.90;;;;;;5016400;28;21012;-77
2022/10/03 07:59:01;;;;;;;12.13;6.70;;;18.20;99.90;;;;;;5032471;28;20485;-77
2022/10/03 08:01:52;;;;;;;13.57;5.33;;;18.30;99.90;;;;;;5031876;28;20454;-77
2022/10/03 08:04:59;;;;;;;14.57;5.57;;;18.20;99.90;;;;;;5025908;28;20527;-76
2022/10/03 08:07:44;;;;;;;9.97;4.97;;;18.20;99.90;;;;;;5026804;28;20458;-75
2022/10/03 08:10:43;;;;;;;10.43;5.40;;;18.30;99.90;;;;;;5029446;28;20470;-75
2022/10/03 08:13:32;;;;;;;13.50;4.90;;;18.40;99.90;;;;;;5025849;28;20544;-77
2022/10/03 08:16:16;;;;;;;10.33;4.80;;;18.50;99.90;;;;;;5029564;28;20470;-75
2022/10/03 08:19:16;;;;;;;11.60;6.20;;;18.50;99.90;;;;;;5030102;28;20482;-76
2022/10/03 08:21:55;;;;;;;10.10;4.43;;;18.60;99.90;;;;;;5030087;28;20431;-76
2022/10/03 08:24:49;;;;;;;13.37;4.40;;;18.70;99.90;;;;;;5031670;28;20440;-75
2022/10/03 08:27:34;;;;;;;16.97;6.50;;;18.60;99.90;;;;;;5026026;28;20446;-76
2022/10/03 08:30:17;;;;;;;6.10;4.40;;;18.70;99.90;;;;;;5029314;28;20458;-77
2022/10/03 08:33:12;;;;;;;9.80;5.53;;;18.70;99.90;;;;;;5026756;28;20791;-76
2022/10/03 08:36:08;;;;;;;11.83;6.70;;;18.80;99.90;;;;;;5025786;28;20544;-76
2022/10/03 08:39:05;;;;;;;11.00;7.50;;;18.30;99.90;;;;;;5028601;28;20493;-76
2022/10/03 08:42:16;;;;;;;12.70;6.83;;;18.30;99.90;;;;;;5026555;28;20457;-77
2022/10/03 08:44:59;;;;;;;7.90;6.30;;;17.80;99.90;;;;;;5030273;28;20470;-76
2022/10/03 08:48:02;;;;;;;8.47;6.20;;;17.30;99.90;;;;;;5030812;28;20448;-77
2022/10/03 08:50:56;;;;;;;10.90;7.70;;;16.70;99.90;;;;;;5029164;28;20424;-76
2022/10/03 08:54:04;;;;;;;8.67;7.03;;;16.20;99.90;;;;;;5026756;28;20454;-74
2022/10/03 08:57:06;;;;;;;11.97;8.00;;;15.80;99.90;;;;;;5026480;28;20461;-75
2022/10/03 09:00:03;;;;;;;14.00;8.10;;;15.30;99.90;;;;;;5027946;28;20489;-75
2022/10/03 09:03:03;;;;;;;19.50;9.13;;;15.00;99.90;;;;;;5030903;28;20460;-78
2022/10/03 09:06:07;;;;;;;18.90;7.77;;;15.20;99.90;;;;;;5027801;28;20478;-78
2022/10/03 09:09:14;;;;;;;11.80;8.10;;;15.30;99.90;;;;;;5030782;28;20461;-77
2022/10/03 09:12:24;;;;;;;13.70;9.73;;;15.20;99.90;;;;;;5028479;28;20458;-76
2022/10/03 09:15:14;;;;;;;12.80;9.15;;;15.30;99.90;;;;;;5026616;28;20853;-78
2022/10/03 09:18:21;;;;;;;11.73;7.87;;;15.60;99.90;;;;;;5029512;28;20214;-77
2022/10/03 09:21:37;;;;;;;14.10;8.03;;;15.90;99.90;;;;;;5030220;28;20905;-75
2022/10/03 09:24:26;;;;;;;12.80;8.73;;;16.20;99.90;;;;;;5033868;28;20844;-74
2022/10/03 09:27:25;;;;;;;16.00;8.10;;;16.20;99.90;;;;;;5033060;28;20836;-76
2022/10/03 09:30:24;;;;;;;20.10;8.70;;;16.30;99.90;;;;;;5031219;28;20442;-76
2022/10/03 09:33:33;;;;;;;14.23;8.47;;;16.10;99.90;;;;;;5033797;28;20442;-76
2022/10/03 09:36:40;;;;;;;12.33;8.20;;;16.10;99.90;;;;;;5037196;28;20462;-87
2022/10/03 09:39:36;;;;;;;13.90;8.57;;;16.10;99.90;;;;;;5013186;28;20470;-76
2022/10/03 09:42:37;;;;;;;10.70;6.53;;;16.10;99.90;;;;;;5031334;28;20529;-76
2022/10/03 09:45:27;;;;;;;12.40;6.40;;;15.90;99.90;;;;;;5032675;28;20831;-77
2022/10/03 09:48:20;;;;;;;11.07;6.70;;;15.90;99.90;;;;;;5034029;28;20464;-76
2022/10/03 09:51:08;;;;;;;12.10;7.23;;;16.40;99.90;;;;;;5033412;28;20801;-75
2022/10/03 09:54:06;;;;;;;10.70;6.17;;;16.80;99.90;;;;;;5034053;28;20979;-78
2022/10/03 09:57:03;;;;;;;10.47;6.23;;;16.90;99.90;;;;;;5035006;28;20437;-80
2022/10/03 09:59:48;;;;;;;10.10;6.17;;;16.80;99.90;;;;;;5031474;28;20463;-76
2022/10/03 10:03:02;;;;;;;11.50;6.60;;;16.90;99.90;;;;;;5034415;28;20443;-76
2022/10/03 10:05:58;;;;;;;11.43;6.07;;;16.90;99.90;;;;;;4994011;28;20473;-76
2022/10/03 10:08:48;;;;;;;15.40;6.20;;;16.80;99.90;;;;;;5033784;28;20424;-77
2022/10/03 10:11:29;;;;;;;12.73;6.80;;;16.80;99.90;;;;;;5031791;28;20449;-80
2022/10/03 10:14:24;;;;;;;14.77;6.50;;;16.80;99.90;;;;;;5038703;28;20993;-79
2022/10/03 10:17:25;;;;;;;11.07;6.40;;;16.70;99.90;;;;;;5038424;28;20450;-79
2022/10/03 10:20:04;;;;;;;10.00;5.90;;;16.60;99.90;;;;;;5038709;28;20524;-79
2022/10/03 10:23:19;;;;;;;15.73;6.63;;;16.40;99.90;;;;;;5038323;28;20463;-78
2022/10/03 10:26:23;;;;;;;15.80;6.30;;;16.00;99.90;;;;;;5035891;28;20842;-79
2022/10/03 10:29:20;;;;;;;12.63;6.10;;;15.80;99.90;;;;;;5036832;28;20421;-79
2022/10/03 10:32:21;;;;;;;12.83;6.10;;;15.80;99.90;;;;;;5037446;28;20424;-80
2022/10/03 10:35:22;;;;;;;11.30;5.60;;;16.10;99.90;;;;;;5037762;28;20462;-80
2022/10/03 10:38:24;;;;;;;7.80;4.90;;;16.80;99.90;;;;;;5038902;28;20449;-79
2022/10/03 10:41:33;;;;;;;10.77;4.80;;;17.30;99.90;;;;;;5021645;28;20425;-79
2022/10/03 10:44:44;;;;;;;11.13;3.20;;;18.00;99.90;;;;;;5020865;28;20445;-79
2022/10/03 10:47:36;;;;;;;7.37;2.77;;;18.10;99.90;;;;;;5038064;28;20440;-79
2022/10/03 10:50:41;;;;;;;7.30;2.27;;;18.70;99.90;;;;;;5035483;28;20417;-77
2022/10/03 10:53:45;;;;;;;5.57;2.33;;;19.10;99.90;;;;;;5031781;28;20439;-77
2022/10/03 10:56:51;;;;;;;4.60;2.37;;;19.30;99.90;;;;;;5032369;28;20465;-76
2022/10/03 10:59:51;;;;;;;4.70;2.47;;;19.10;99.90;;;;;;5020801;28;20485;-77
2022/10/03 11:03:04;;;;;;;6.68;2.10;;;18.90;99.90;;;;;;5031638;28;20813;-76
2022/10/03 11:06:03;;;;;;;5.67;2.30;;;18.40;99.90;;;;;;5028813;28;20215;-76
2022/10/03 11:09:04;;;;;;;7.10;3.13;;;18.20;99.90;;;;;;5029096;28;20429;-76
2022/10/03 11:12:10;;;;;;;5.77;2.93;;;17.90;99.90;;;;;;5028228;28;20425;-77
2022/10/03 11:15:38;;;;;;;5.17;2.67;;;17.90;99.90;;;;;;5029203;28;20477;-76
2022/10/03 11:18:51;;;;;;;8.03;3.23;;;17.60;99.90;;;;;;5031103;28;20425;-76
2022/10/03 11:22:07;;;;;;;3.77;2.57;;;17.50;99.90;;;;;;5028796;28;20424;-76
2022/10/03 11:25:15;;;;;;;4.70;2.53;;;17.40;99.90;;;;;;5028225;28;21006;-76
2022/10/03 11:28:20;;;;;;;3.40;1.70;;;17.60;99.90;;;;;;5031994;28;20424;-76
2022/10/03 11:31:18;;;;;;;6.00;2.97;;;18.40;99.90;;;;;;5029255;28;20215;-79
2022/10/03 11:34:27;;;;;;;5.07;2.57;;;18.90;99.90;;;;;;5029666;28;20446;-75
2022/10/03 11:37:07;;;;;;;6.70;2.30;;;19.40;99.90;;;;;;5030462;28;20446;-76
2022/10/03 11:39:43;;;;;;;5.10;2.10;;;19.80;99.90;;;;;;5031742;28;21062;-76
2022/10/03 11:42:21;;;;;;;4.37;2.03;;;20.20;99.90;;;;;;5028235;28;20457;-76
2022/10/03 11:44:57;;;;;;;6.37;2.23;;;20.50;99.90;;;;;;5031390;28;21001;-77
2022/10/03 11:47:42;;;;;;;2.40;2.17;;;20.70;99.90;;;;;;5030175;28;20962;-76
2022/10/03 11:50:37;;;;;;;4.83;2.23;;;20.60;99.90;;;;;;5031135;28;20505;-76
2022/10/03 11:53:30;;;;;;;7.77;2.63;;;20.40;99.90;;;;;;5031608;28;20450;-76
2022/10/03 11:56:12;;;;;;;5.13;3.20;;;20.10;99.90;;;;;;5030476;28;20993;-76
2022/10/03 11:58:55;;;;;;;6.33;2.97;;;19.70;99.90;;;;;;5031750;28;20457;-77
2022/10/03 12:01:30;;;;;;;5.60;3.20;;;19.60;99.90;;;;;;5024282;28;20453;-77
2022/10/03 12:04:07;;;;;;;8.93;3.10;;;19.60;99.90;;;;;;5030633;28;20542;-75
2022/10/03 12:09:57;;;;;;;7.37;2.87;;;19.30;99.90;;;;;;5028976;28;20449;-75
2022/10/03 12:12:34;;;;;;;4.90;3.10;;;19.20;99.90;;;;;;5025564;28;20446;-74
2022/10/03 12:15:10;;;;;;;4.43;2.97;;;19.10;99.90;;;;;;5031091;28;20548;-75
2022/10/03 12:17:43;;;;;;;6.43;3.20;;;18.90;99.90;;;;;;5032221;28;20457;-78
2022/10/03 12:20:18;;;;;;;7.30;2.60;;;18.90;99.90;;;;;;5030016;28;21000;-75
2022/10/03 12:22:52;;;;;;;5.93;2.80;;;18.70;99.90;;;;;;5031004;28;20453;-75
2022/10/03 12:25:22;;;;;;;8.13;2.70;;;18.40;99.90;;;;;;5030216;28;20456;-74
2022/10/03 12:28:01;;;;;;;9.17;3.13;;;18.20;99.90;;;;;;5030921;28;20431;-74
2022/10/03 12:30:38;;;;;;;9.93;2.90;;;18.20;99.90;;;;;;5030387;28;20424;-75
2022/10/03 12:33:31;;;;;;;3.80;2.60;;;18.20;99.90;;;;;;5031165;28;20959;-74
2022/10/03 12:36:05;;;;;;;4.03;2.57;;;18.20;99.90;;;;;;5030917;28;20521;-76
2022/10/03 12:38:58;;;;;;;8.20;2.83;;;18.00;99.90;;;;;;5031474;28;20789;-75
2022/10/03 12:41:52;;;;;;;4.43;2.90;;;17.60;99.90;;;;;;5025401;28;20420;-75
2022/10/03 12:44:31;;;;;;;10.50;2.50;;;17.40;99.90;;;;;;5025406;28;20445;-74
2022/10/03 12:47:10;;;;;;;6.37;2.53;;;17.30;99.90;;;;;;5030112;28;20436;-75
2022/10/03 12:49:50;;;;;;;6.10;2.70;;;17.30;99.90;;;;;;5031208;28;20454;-75
2022/10/03 12:52:24;;;;;;;4.60;2.63;;;17.40;99.90;;;;;;5030209;28;20432;-75
2022/10/03 12:55:01;;;;;;;4.40;2.40;;;17.70;99.90;;;;;;5029939;28;20492;-75
2022/10/03 12:57:52;;;;;;;4.95;2.50;;;18.20;99.90;;;;;;5026068;28;20924;-75
2022/10/03 13:00:22;;;;;;;4.47;2.63;;;18.50;99.90;;;;;;5031056;28;20718;-74
2022/10/03 13:03:21;;;;;;;3.70;2.63;;;18.60;99.90;;;;;;5032523;28;20432;-76
2022/10/03 13:06:03;;;;;;;6.30;2.60;;;18.40;99.90;;;;;;5026191;28;20442;-74
2022/10/03 13:08:44;;;;;;;3.87;2.70;;;18.50;99.90;;;;;;5025530;28;20457;-76
2022/10/03 13:11:31;;;;;;;7.57;2.67;;;18.80;99.90;;;;;;5029913;28;20441;-77
2022/10/03 13:14:12;;;;;;;7.03;4.17;;;18.80;99.90;;;;;;5029891;28;20478;-77
2022/10/03 13:16:46;;;;;;;8.57;3.60;;;18.80;99.90;;;;;;5030557;28;20429;-77
2022/10/03 13:19:18;;;;;;;4.13;2.80;;;18.60;99.90;;;;;;5028972;28;20493;-77
2022/10/03 13:22:02;;;;;;;7.30;2.93;;;18.50;99.90;;;;;;5031018;28;20433;-77
2022/10/03 13:24:33;;;;;;;8.10;3.70;;;18.50;99.90;;;;;;5031442;28;21005;-77
2022/10/03 13:27:18;;;;;;;6.17;3.20;;;18.50;99.90;;;;;;5030438;28;20537;-77
2022/10/03 13:29:47;;;;;;;9.03;3.93;;;18.50;99.90;;;;;;5027548;28;20457;-77
2022/10/03 13:32:27;;;;;;;6.60;3.67;;;18.60;99.90;;;;;;5029780;28;20428;-77
2022/10/03 13:38:19;;;;;;;7.47;3.50;;;18.90;99.90;;;;;;5028293;28;20580;-77
2022/10/03 13:40:55;;;;;;;10.10;3.40;;;19.00;99.90;;;;;;5027702;28;20456;-76
2022/10/03 13:43:36;;;;;;;8.60;3.40;;;19.30;99.90;;;;;;5030185;28;20450;-75
2022/10/03 13:46:10;;;;;;;18.67;3.60;;;19.40;99.90;;;;;;5029106;28;20461;-75
2022/10/03 13:48:38;;;;;;;4.80;3.23;;;19.40;99.90;;;;;;5030104;28;20785;-75
2022/10/03 13:51:16;;;;;;;4.80;3.40;;;19.60;99.90;;;;;;5030219;28;20970;-75
2022/10/03 13:53:59;;;;;;;5.13;3.33;;;19.60;99.90;;;;;;5028889;28;20456;-75
2022/10/03 13:56:50;;;;;;;10.90;3.40;;;19.80;99.90;;;;;;5024028;28;20537;-76
2022/10/03 13:59:37;;;;;;;5.43;3.10;;;19.90;99.90;;;;;;5029374;28;20447;-76
2022/10/03 14:02:20;;;;;;;6.40;3.30;;;20.10;99.90;;;;;;5029339;28;20446;-75
2022/10/03 14:05:06;;;;;;;4.87;2.70;;;20.20;99.90;;;;;;5029611;28;20466;-73
2022/10/03 14:07:45;;;;;;;3.03;2.10;;;20.40;99.90;;;;;;5033311;28;20465;-75
2022/10/03 14:10:50;;;;;;;6.63;2.60;;;20.40;99.90;;;;;;5033107;28;20450;-75
2022/10/03 14:13:28;;;;;;;6.20;2.80;;;20.10;99.90;;;;;;5025708;28;20821;-76
2022/10/03 14:16:01;;;;;;;6.70;3.20;;;20.10;99.90;;;;;;5033310;28;21064;-76
2022/10/03 14:18:44;;;;;;;6.20;3.53;;;19.90;99.90;;;;;;5027954;28;20818;-76
2022/10/03 14:21:35;;;;;;;8.23;3.33;;;19.50;99.90;;;;;;5033377;28;20485;-76
2022/10/03 14:24:12;;;;;;;7.93;3.90;;;19.20;99.90;;;;;;5032008;28;20473;-76
2022/10/03 14:26:47;;;;;;;7.30;3.50;;;19.00;99.90;;;;;;5032400;28;20454;-76
2022/10/03 14:29:20;;;;;;;6.13;3.80;;;18.80;99.90;;;;;;5034056;28;20964;-75
2022/10/03 14:31:56;;;;;;;6.57;3.30;;;18.70;99.90;;;;;;5032509;28;20461;-76
2022/10/03 14:34:43;;;;;;;5.93;3.00;;;18.50;99.90;;;;;;5033184;28;20448;-76
2022/10/03 14:37:23;;;;;;;7.30;3.07;;;18.40;99.90;;;;;;5033674;28;20457;-76
2022/10/03 14:40:03;;;;;;;5.33;2.87;;;18.30;99.90;;;;;;5033806;28;20452;-76
2022/10/03 14:42:55;;;;;;;8.33;3.40;;;18.30;99.90;;;;;;5032883;28;20608;-76